Map

Track Data

SID SEASON NUMBER BASIN SUBBASIN NAME ISO_TIME NATURE LAT LON WMO_WIND WMO_PRES WMO_AGENCY TRACK_TYPE DIST2LAND LANDFALL IFLAG USA_AGENCY USA_ATCF_ID USA_LAT USA_LON USA_RECORD USA_STATUS USA_WIND USA_PRES USA_SSHS USA_R34_NE USA_R34_SE USA_R34_SW USA_R34_NW USA_R50_NE USA_R50_SE USA_R50_SW USA_R50_NW USA_R64_NE USA_R64_SE USA_R64_SW USA_R64_NW USA_POCI USA_ROCI USA_RMW USA_EYE TOKYO_LAT TOKYO_LON TOKYO_GRADE TOKYO_WIND TOKYO_PRES TOKYO_R50_DIR TOKYO_R50_LONG TOKYO_R50_SHORT TOKYO_R30_DIR TOKYO_R30_LONG TOKYO_R30_SHORT TOKYO_LAND CMA_LAT CMA_LON CMA_CAT CMA_WIND CMA_PRES HKO_LAT HKO_LON HKO_CAT HKO_WIND HKO_PRES NEWDELHI_LAT NEWDELHI_LON NEWDELHI_GRADE NEWDELHI_WIND NEWDELHI_PRES NEWDELHI_CI NEWDELHI_DP NEWDELHI_POCI REUNION_LAT REUNION_LON REUNION_TYPE REUNION_WIND REUNION_PRES REUNION_TNUM REUNION_CI REUNION_RMW REUNION_R34_NE REUNION_R34_SE REUNION_R34_SW REUNION_R34_NW REUNION_R50_NE REUNION_R50_SE REUNION_R50_SW REUNION_R50_NW REUNION_R64_NE REUNION_R64_SE REUNION_R64_SW REUNION_R64_NW BOM_LAT BOM_LON BOM_TYPE BOM_WIND BOM_PRES BOM_TNUM BOM_CI BOM_RMW BOM_R34_NE BOM_R34_SE BOM_R34_SW BOM_R34_NW BOM_R50_NE BOM_R50_SE BOM_R50_SW BOM_R50_NW BOM_R64_NE BOM_R64_SE BOM_R64_SW BOM_R64_NW BOM_ROCI BOM_POCI BOM_EYE BOM_POS_METHOD BOM_PRES_METHOD NADI_LAT NADI_LON NADI_CAT NADI_WIND NADI_PRES WELLINGTON_LAT WELLINGTON_LON WELLINGTON_WIND WELLINGTON_PRES DS824_LAT DS824_LON DS824_STAGE DS824_WIND DS824_PRES TD9636_LAT TD9636_LON TD9636_STAGE TD9636_WIND TD9636_PRES TD9635_LAT TD9635_LON TD9635_WIND TD9635_PRES TD9635_ROCI NEUMANN_LAT NEUMANN_LON NEUMANN_CLASS NEUMANN_WIND NEUMANN_PRES MLC_LAT MLC_LON MLC_CLASS MLC_WIND MLC_PRES USA_GUST BOM_GUST BOM_GUST_PER REUNION_GUST REUNION_GUST_PER USA_SEAHGT USA_SEARAD_NE USA_SEARAD_SE USA_SEARAD_SW USA_SEARAD_NW STORM_SPEED STORM_DIR
1983274N18089 1983 65 NI BB NOT_NAMED 1983-10-01 00:00:00 NR 18.2000 88.6000 main 306 298 O_________O___ jtwc_io IO021983 18.2000 88.6000 25 -1 18.2000 88.6000 1 25 3 254
1983274N18089 1983 65 NI BB NOT_NAMED 1983-10-01 03:00:00 NR 18.1563 88.4414 main 291 291 P_________P___ IO021983 18.1375 88.4625 25 -1 18.1752 88.4203 1 26 3 257
1983274N18089 1983 65 NI BB NOT_NAMED 1983-10-01 06:00:00 NR 18.1251 88.2712 main 291 277 O_________P___ jtwc_io IO021983 18.1000 88.3000 25 -1 18.1502 88.2425 1 27 3 263
1983274N18089 1983 65 NI BB NOT_NAMED 1983-10-01 09:00:00 NR 18.1126 88.0842 main 277 264 P_________P___ IO021983 18.1000 88.1000 27 -1 18.1251 88.0684 1 28 4 266
1983274N18089 1983 65 NI BB NOT_NAMED 1983-10-01 12:00:00 NR 18.1000 87.9000 main 264 258 O_________O___ jtwc_io IO021983 18.1000 87.9000 30 -1 18.1000 87.9000 1 30 3 261
1983274N18089 1983 65 NI BB NOT_NAMED 1983-10-01 15:00:00 NR 18.0624 87.7436 main 252 252 P_________P___ IO021983 18.0499 87.7500 30 -1 18.0749 87.7372 1 30 3 256
1983274N18089 1983 65 NI BB NOT_NAMED 1983-10-01 18:00:00 NR 18.0249 87.5863 main 256 247 O_________P___ jtwc_io IO021983 18.0000 87.6000 30 -1 18.0498 87.5725 1 30 3 261
1983274N18089 1983 65 NI BB NOT_NAMED 1983-10-01 21:00:00 NR 18.0124 87.4058 main 247 239 P_________P___ IO021983 18.0000 87.4150 30 -1 18.0248 87.3966 1 30 4 266
1983274N18089 1983 65 NI BB NOT_NAMED 1983-10-02 00:00:00 NR 18.0000 87.2000 main 239 232 O_________O___ jtwc_io IO021983 18.0000 87.2000 30 -1 18.0000 87.2000 1 30 4 263
1983274N18089 1983 65 NI BB NOT_NAMED 1983-10-02 03:00:00 NR 17.9605 86.9645 main 232 228 P_________P___ IO021983 17.9500 86.9574 30 -1 17.9710 86.9715 1 30 5 260
1983274N18089 1983 65 NI BB NOT_NAMED 1983-10-02 06:00:00 NR 17.9213 86.7112 main 232 222 O_________P___ jtwc_io IO021983 17.9000 86.7000 30 -1 17.9425 86.7224 1 30 5 263
1983274N18089 1983 65 NI BB NOT_NAMED 1983-10-02 09:00:00 NR 17.9051 86.4561 main 222 196 P_________P___ IO021983 17.8925 86.4500 30 -1 17.9178 86.4621 1 30 5 267
1983274N18089 1983 65 NI BB NOT_NAMED 1983-10-02 12:00:00 NR 17.9000 86.2000 main 196 178 O_________O___ jtwc_io IO021983 17.9000 86.2000 30 -1 17.9000 86.2000 1 30 5 269
1983274N18089 1983 65 NI BB NOT_NAMED 1983-10-02 15:00:00 NR 17.8964 85.9480 main 170 153 P_________P___ IO021983 17.9000 85.9500 32 -1 17.8928 85.9460 1 33 5 270
1983274N18089 1983 65 NI BB NOT_NAMED 1983-10-02 18:00:00 NR 17.8962 85.6963 main 153 138 O_________P___ jtwc_io IO021983 17.9000 85.7000 35 0 17.8924 85.6926 1 37 5 270
1983274N18089 1983 65 NI BB NOT_NAMED 1983-10-02 21:00:00 NR 17.8979 85.4427 main 130 115 P_________P___ IO021983 17.9000 85.4425 40 0 17.8959 85.4428 1 41 5 270
1983274N18089 1983 65 NI BB NOT_NAMED 1983-10-03 00:00:00 NR 17.9000 85.2000 main 115 99 O_________O___ jtwc_io IO021983 17.9000 85.2000 45 0 17.9000 85.2000 2 45 4 269
1983274N18089 1983 65 NI BB NOT_NAMED 1983-10-03 03:00:00 NR 17.8875 85.0060 main 99 85 P_________P___ IO021983 17.8999 85.0000 47 0 17.8750 85.0121 2 46 4 266
1983274N18089 1983 65 NI BB NOT_NAMED 1983-10-03 06:00:00 NR 17.8770 84.8121 main 85 69 O_________P___ jtwc_io IO021983 17.9000 84.8000 50 0 17.8540 84.8243 2 47 4 268
1983274N18089 1983 65 NI BB NOT_NAMED 1983-10-03 09:00:00 NR 17.8742 84.5972 main 69 49 P_________P___ IO021983 17.8923 84.5949 50 0 17.8561 84.5994 2 48 5 273
1983274N18089 1983 65 NI BB NOT_NAMED 1983-10-03 12:00:00 NR 17.9000 84.3000 main 49 22 O_________O___ jtwc_io IO021983 17.9000 84.3000 50 0 17.9000 84.3000 2 50 7 277
1983274N18089 1983 65 NI BB NOT_NAMED 1983-10-03 15:00:00 NR 17.9556 83.8683 main 22 0 P_________P___ IO021983 17.9126 83.8373 50 0 17.9987 83.8994 2 48 9 281
1983274N18089 1983 65 NI BB NOT_NAMED 1983-10-03 18:00:00 NR 18.0710 83.3570 main 0 0 O_________P___ jtwc_io IO021983 18.0000 83.3000 50 0 18.1420 83.4140 2 47 10 287
1983274N18089 1983 65 NI BB NOT_NAMED 1983-10-03 21:00:00 NR 18.2635 82.8298 main 0 0 P_________P___ IO021983 18.2126 82.7880 47 0 18.3143 82.8716 2 46 11 293
1983274N18089 1983 65 NI BB NOT_NAMED 1983-10-04 00:00:00 NR 18.5000 82.3000 main 0 O_________O___ jtwc_io IO021983 18.5000 82.3000 45 0 18.5000 82.3000 2 45 11 295

About IBTrACS Database

This database is a web-friendly format of International Best Track Archive for Climate Stewardship (IBTrACS), a global best track data archive curated by NOAA dating back to 1842.

Updated: 2021-10-21